sensor_id;sensor_type;location;lat;lon;timestamp;temperature;humidity
36716;DHT22;22699;51.034;3.730;2023-08-17T00:02:21;21.30;93.10
36716;DHT22;22699;51.034;3.730;2023-08-17T00:04:46;21.20;93.30
36716;DHT22;22699;51.034;3.730;2023-08-17T00:07:12;21.20;93.60
36716;DHT22;22699;51.034;3.730;2023-08-17T00:09:39;21.10;93.80
36716;DHT22;22699;51.034;3.730;2023-08-17T00:12:05;21.10;94.10
36716;DHT22;22699;51.034;3.730;2023-08-17T00:14:30;21.10;94.30
36716;DHT22;22699;51.034;3.730;2023-08-17T00:16:56;21.00;94.50
36716;DHT22;22699;51.034;3.730;2023-08-17T00:19:22;21.00;94.80
36716;DHT22;22699;51.034;3.730;2023-08-17T00:21:47;21.00;95.20
36716;DHT22;22699;51.034;3.730;2023-08-17T00:24:13;20.90;95.60
36716;DHT22;22699;51.034;3.730;2023-08-17T00:26:39;20.90;95.80
36716;DHT22;22699;51.034;3.730;2023-08-17T00:29:05;20.90;96.00
36716;DHT22;22699;51.034;3.730;2023-08-17T00:31:31;20.90;96.30
36716;DHT22;22699;51.034;3.730;2023-08-17T00:33:56;20.90;96.80
36716;DHT22;22699;51.034;3.730;2023-08-17T00:36:23;20.80;97.10
36716;DHT22;22699;51.034;3.730;2023-08-17T00:38:48;20.80;97.40
36716;DHT22;22699;51.034;3.730;2023-08-17T00:41:15;20.80;97.70
36716;DHT22;22699;51.034;3.730;2023-08-17T00:43:40;20.70;97.90
36716;DHT22;22699;51.034;3.730;2023-08-17T00:46:07;20.70;98.20
36716;DHT22;22699;51.034;3.730;2023-08-17T00:48:33;20.70;98.40
36716;DHT22;22699;51.034;3.730;2023-08-17T00:51:00;20.60;98.50
36716;DHT22;22699;51.034;3.730;2023-08-17T00:53:27;20.60;98.70
36716;DHT22;22699;51.034;3.730;2023-08-17T00:55:55;20.60;98.80
36716;DHT22;22699;51.034;3.730;2023-08-17T00:58:21;20.60;99.10
36716;DHT22;22699;51.034;3.730;2023-08-17T01:00:47;20.50;99.30
36716;DHT22;22699;51.034;3.730;2023-08-17T01:03:13;20.50;99.80
36716;DHT22;22699;51.034;3.730;2023-08-17T01:05:39;20.40;99.70
36716;DHT22;22699;51.034;3.730;2023-08-17T01:08:05;20.30;99.90
36716;DHT22;22699;51.034;3.730;2023-08-17T01:10:41;20.30;99.90
36716;DHT22;22699;51.034;3.730;2023-08-17T01:13:12;20.20;99.90
36716;DHT22;22699;51.034;3.730;2023-08-17T01:15:50;20.20;99.90
36716;DHT22;22699;51.034;3.730;2023-08-17T01:18:29;20.10;99.90
36716;DHT22;22699;51.034;3.730;2023-08-17T01:20:57;20.10;99.90
36716;DHT22;22699;51.034;3.730;2023-08-17T01:23:23;20.10;99.90
36716;DHT22;22699;51.034;3.730;2023-08-17T01:25:49;20.10;99.90
36716;DHT22;22699;51.034;3.730;2023-08-17T01:28:15;20.10;99.90
36716;DHT22;22699;51.034;3.730;2023-08-17T01:33:27;20.10;99.90
36716;DHT22;22699;51.034;3.730;2023-08-17T01:36:07;20.10;99.90
36716;DHT22;22699;51.034;3.730;2023-08-17T01:38:37;20.10;99.90
36716;DHT22;22699;51.034;3.730;2023-08-17T01:41:06;20.20;99.90
36716;DHT22;22699;51.034;3.730;2023-08-17T01:43:33;20.10;99.90
36716;DHT22;22699;51.034;3.730;2023-08-17T01:46:01;20.20;99.90
36716;DHT22;22699;51.034;3.730;2023-08-17T01:48:27;20.30;99.90
36716;DHT22;22699;51.034;3.730;2023-08-17T01:50:52;20.30;99.90
36716;DHT22;22699;51.034;3.730;2023-08-17T01:53:18;20.30;99.90
36716;DHT22;22699;51.034;3.730;2023-08-17T01:55:44;20.40;99.90
36716;DHT22;22699;51.034;3.730;2023-08-17T01:58:09;20.30;99.90
36716;DHT22;22699;51.034;3.730;2023-08-17T02:00:35;20.30;99.90
36716;DHT22;22699;51.034;3.730;2023-08-17T02:03:01;20.30;99.90
36716;DHT22;22699;51.034;3.730;2023-08-17T02:05:26;20.30;99.90
36716;DHT22;22699;51.034;3.730;2023-08-17T02:07:54;20.30;99.90
36716;DHT22;22699;51.034;3.730;2023-08-17T02:10:21;20.30;99.90
36716;DHT22;22699;51.034;3.730;2023-08-17T02:12:46;20.20;99.90
36716;DHT22;22699;51.034;3.730;2023-08-17T02:15:13;20.30;99.90
36716;DHT22;22699;51.034;3.730;2023-08-17T02:17:39;20.20;99.90
36716;DHT22;22699;51.034;3.730;2023-08-17T02:20:05;20.20;99.90
36716;DHT22;22699;51.034;3.730;2023-08-17T02:22:32;20.10;99.90
36716;DHT22;22699;51.034;3.730;2023-08-17T02:24:58;20.20;99.90
36716;DHT22;22699;51.034;3.730;2023-08-17T02:27:26;20.20;99.90
36716;DHT22;22699;51.034;3.730;2023-08-17T02:29:52;20.30;99.90
36716;DHT22;22699;51.034;3.730;2023-08-17T02:32:18;20.20;99.90
36716;DHT22;22699;51.034;3.730;2023-08-17T02:34:44;20.20;99.90
36716;DHT22;22699;51.034;3.730;2023-08-17T02:37:09;20.20;99.90
36716;DHT22;22699;51.034;3.730;2023-08-17T02:39:36;20.20;99.90
36716;DHT22;22699;51.034;3.730;2023-08-17T02:42:02;20.30;99.90
36716;DHT22;22699;51.034;3.730;2023-08-17T02:44:28;20.30;99.90
36716;DHT22;22699;51.034;3.730;2023-08-17T02:46:56;20.30;99.90
36716;DHT22;22699;51.034;3.730;2023-08-17T02:49:27;20.30;99.90
36716;DHT22;22699;51.034;3.730;2023-08-17T02:51:53;20.30;99.90
36716;DHT22;22699;51.034;3.730;2023-08-17T02:54:18;20.30;99.90
36716;DHT22;22699;51.034;3.730;2023-08-17T02:56:44;20.30;99.90
36716;DHT22;22699;51.034;3.730;2023-08-17T02:59:10;20.30;99.90
36716;DHT22;22699;51.034;3.730;2023-08-17T03:01:35;20.30;99.90
36716;DHT22;22699;51.034;3.730;2023-08-17T03:04:01;20.20;99.90
36716;DHT22;22699;51.034;3.730;2023-08-17T03:06:27;20.10;99.90
36716;DHT22;22699;51.034;3.730;2023-08-17T03:08:52;20.10;99.90
36716;DHT22;22699;51.034;3.730;2023-08-17T03:11:20;20.10;99.90
36716;DHT22;22699;51.034;3.730;2023-08-17T03:13:46;20.00;99.90
36716;DHT22;22699;51.034;3.730;2023-08-17T03:16:14;19.90;99.90
36716;DHT22;22699;51.034;3.730;2023-08-17T03:18:40;19.80;99.90
36716;DHT22;22699;51.034;3.730;2023-08-17T03:21:05;19.80;99.90
36716;DHT22;22699;51.034;3.730;2023-08-17T03:23:32;19.70;99.90
36716;DHT22;22699;51.034;3.730;2023-08-17T03:25:58;19.70;99.90
36716;DHT22;22699;51.034;3.730;2023-08-17T03:28:24;19.70;99.90
36716;DHT22;22699;51.034;3.730;2023-08-17T03:30:55;19.70;99.90
36716;DHT22;22699;51.034;3.730;2023-08-17T03:33:21;19.70;99.90
36716;DHT22;22699;51.034;3.730;2023-08-17T03:35:47;19.60;99.90
36716;DHT22;22699;51.034;3.730;2023-08-17T03:38:12;19.60;99.90
36716;DHT22;22699;51.034;3.730;2023-08-17T03:40:38;19.60;99.90
36716;DHT22;22699;51.034;3.730;2023-08-17T03:43:05;19.50;99.90
36716;DHT22;22699;51.034;3.730;2023-08-17T03:45:32;19.50;99.90
36716;DHT22;22699;51.034;3.730;2023-08-17T03:47:57;19.60;99.90
36716;DHT22;22699;51.034;3.730;2023-08-17T03:50:27;19.60;99.90
36716;DHT22;22699;51.034;3.730;2023-08-17T03:52:53;19.50;99.90
36716;DHT22;22699;51.034;3.730;2023-08-17T03:55:19;19.50;99.90
36716;DHT22;22699;51.034;3.730;2023-08-17T03:57:44;19.50;99.90
36716;DHT22;22699;51.034;3.730;2023-08-17T04:00:10;19.50;99.90
36716;DHT22;22699;51.034;3.730;2023-08-17T04:02:37;19.40;99.90
36716;DHT22;22699;51.034;3.730;2023-08-17T04:05:03;19.30;99.90
36716;DHT22;22699;51.034;3.730;2023-08-17T04:07:29;19.30;99.90
36716;DHT22;22699;51.034;3.730;2023-08-17T04:09:54;19.30;99.90
36716;DHT22;22699;51.034;3.730;2023-08-17T04:12:20;19.30;99.90
36716;DHT22;22699;51.034;3.730;2023-08-17T04:14:46;19.30;99.90
36716;DHT22;22699;51.034;3.730;2023-08-17T04:17:11;19.30;99.90
36716;DHT22;22699;51.034;3.730;2023-08-17T04:19:37;19.30;99.90
36716;DHT22;22699;51.034;3.730;2023-08-17T04:22:03;19.30;99.90
36716;DHT22;22699;51.034;3.730;2023-08-17T04:24:29;19.30;99.90
36716;DHT22;22699;51.034;3.730;2023-08-17T04:26:55;19.40;99.90
36716;DHT22;22699;51.034;3.730;2023-08-17T04:29:21;19.40;99.90
36716;DHT22;22699;51.034;3.730;2023-08-17T04:31:46;19.30;99.90
36716;DHT22;22699;51.034;3.730;2023-08-17T04:34:12;19.30;99.90
36716;DHT22;22699;51.034;3.730;2023-08-17T04:36:38;19.30;99.90
36716;DHT22;22699;51.034;3.730;2023-08-17T04:39:03;19.30;99.90
36716;DHT22;22699;51.034;3.730;2023-08-17T04:41:30;19.20;99.90
36716;DHT22;22699;51.034;3.730;2023-08-17T04:43:56;19.20;99.90
36716;DHT22;22699;51.034;3.730;2023-08-17T04:46:22;19.30;99.90
36716;DHT22;22699;51.034;3.730;2023-08-17T04:48:47;19.20;99.90
36716;DHT22;22699;51.034;3.730;2023-08-17T04:51:13;19.20;99.90
36716;DHT22;22699;51.034;3.730;2023-08-17T04:53:40;19.20;99.90
36716;DHT22;22699;51.034;3.730;2023-08-17T04:56:06;19.20;99.90
36716;DHT22;22699;51.034;3.730;2023-08-17T04:58:31;19.10;99.90
36716;DHT22;22699;51.034;3.730;2023-08-17T05:00:59;19.00;99.90
36716;DHT22;22699;51.034;3.730;2023-08-17T05:03:24;19.10;99.90
36716;DHT22;22699;51.034;3.730;2023-08-17T05:05:52;19.10;99.90
36716;DHT22;22699;51.034;3.730;2023-08-17T05:08:18;19.00;99.90
36716;DHT22;22699;51.034;3.730;2023-08-17T05:10:45;19.10;99.90
36716;DHT22;22699;51.034;3.730;2023-08-17T05:13:11;19.10;99.90
36716;DHT22;22699;51.034;3.730;2023-08-17T05:15:37;19.10;99.90
36716;DHT22;22699;51.034;3.730;2023-08-17T05:18:03;19.10;99.90
36716;DHT22;22699;51.034;3.730;2023-08-17T05:20:29;19.10;99.90
36716;DHT22;22699;51.034;3.730;2023-08-17T05:22:55;19.10;99.90
36716;DHT22;22699;51.034;3.730;2023-08-17T05:25:20;19.10;99.90
36716;DHT22;22699;51.034;3.730;2023-08-17T05:27:47;19.10;99.90
36716;DHT22;22699;51.034;3.730;2023-08-17T05:30:14;19.10;99.90
36716;DHT22;22699;51.034;3.730;2023-08-17T05:32:40;19.10;99.90
36716;DHT22;22699;51.034;3.730;2023-08-17T05:35:06;19.20;99.90
36716;DHT22;22699;51.034;3.730;2023-08-17T05:37:32;19.20;99.90
36716;DHT22;22699;51.034;3.730;2023-08-17T05:39:58;19.20;99.90
36716;DHT22;22699;51.034;3.730;2023-08-17T05:42:24;19.20;99.90
36716;DHT22;22699;51.034;3.730;2023-08-17T05:44:50;19.30;99.90
36716;DHT22;22699;51.034;3.730;2023-08-17T05:47:17;19.30;99.90
36716;DHT22;22699;51.034;3.730;2023-08-17T05:49:45;19.30;99.90
36716;DHT22;22699;51.034;3.730;2023-08-17T05:52:12;19.40;99.90
36716;DHT22;22699;51.034;3.730;2023-08-17T05:54:38;19.50;99.90
36716;DHT22;22699;51.034;3.730;2023-08-17T05:57:03;19.60;99.90
36716;DHT22;22699;51.034;3.730;2023-08-17T05:59:29;19.70;99.90
36716;DHT22;22699;51.034;3.730;2023-08-17T06:01:55;19.90;99.90
36716;DHT22;22699;51.034;3.730;2023-08-17T06:04:21;20.00;99.90
36716;DHT22;22699;51.034;3.730;2023-08-17T06:06:46;20.00;99.80
36716;DHT22;22699;51.034;3.730;2023-08-17T06:09:12;20.00;99.50
36716;DHT22;22699;51.034;3.730;2023-08-17T06:11:39;20.00;99.50
36716;DHT22;22699;51.034;3.730;2023-08-17T06:14:05;20.10;99.20
36716;DHT22;22699;51.034;3.730;2023-08-17T06:16:31;20.00;99.30
36716;DHT22;22699;51.034;3.730;2023-08-17T06:18:59;20.10;98.90
36716;DHT22;22699;51.034;3.730;2023-08-17T06:21:28;20.10;98.90
36716;DHT22;22699;51.034;3.730;2023-08-17T06:23:54;20.10;98.90
36716;DHT22;22699;51.034;3.730;2023-08-17T06:26:22;20.10;99.00
36716;DHT22;22699;51.034;3.730;2023-08-17T06:28:51;20.20;98.80
36716;DHT22;22699;51.034;3.730;2023-08-17T06:31:18;20.40;98.50
36716;DHT22;22699;51.034;3.730;2023-08-17T06:33:43;20.60;98.00
36716;DHT22;22699;51.034;3.730;2023-08-17T06:36:10;20.50;98.00
36716;DHT22;22699;51.034;3.730;2023-08-17T06:38:41;20.40;98.20
36716;DHT22;22699;51.034;3.730;2023-08-17T06:41:11;20.60;98.10
36716;DHT22;22699;51.034;3.730;2023-08-17T06:43:36;20.90;97.60
36716;DHT22;22699;51.034;3.730;2023-08-17T06:46:02;21.30;97.10
36716;DHT22;22699;51.034;3.730;2023-08-17T06:48:29;21.40;96.00
36716;DHT22;22699;51.034;3.730;2023-08-17T06:50:54;21.20;96.10
36716;DHT22;22699;51.034;3.730;2023-08-17T06:53:20;21.40;95.80
36716;DHT22;22699;51.034;3.730;2023-08-17T06:55:47;21.10;95.90
36716;DHT22;22699;51.034;3.730;2023-08-17T06:58:12;21.10;96.10
36716;DHT22;22699;51.034;3.730;2023-08-17T07:00:39;21.00;96.30
36716;DHT22;22699;51.034;3.730;2023-08-17T07:03:06;21.00;96.20
36716;DHT22;22699;51.034;3.730;2023-08-17T07:05:32;21.10;95.80
36716;DHT22;22699;51.034;3.730;2023-08-17T07:07:58;21.00;95.90
36716;DHT22;22699;51.034;3.730;2023-08-17T07:10:25;21.00;95.90
36716;DHT22;22699;51.034;3.730;2023-08-17T07:12:50;20.90;96.30
36716;DHT22;22699;51.034;3.730;2023-08-17T07:15:16;20.80;96.20
36716;DHT22;22699;51.034;3.730;2023-08-17T07:17:42;21.00;96.00
36716;DHT22;22699;51.034;3.730;2023-08-17T07:20:08;21.30;95.70
36716;DHT22;22699;51.034;3.730;2023-08-17T07:22:35;21.50;95.00
36716;DHT22;22699;51.034;3.730;2023-08-17T07:25:01;21.60;94.80
36716;DHT22;22699;51.034;3.730;2023-08-17T07:27:26;21.70;94.80
36716;DHT22;22699;51.034;3.730;2023-08-17T07:29:52;22.00;94.40
36716;DHT22;22699;51.034;3.730;2023-08-17T07:32:18;22.40;93.70
36716;DHT22;22699;51.034;3.730;2023-08-17T07:34:44;22.30;93.50
36716;DHT22;22699;51.034;3.730;2023-08-17T07:37:10;21.90;93.90
36716;DHT22;22699;51.034;3.730;2023-08-17T07:39:35;21.90;94.20
36716;DHT22;22699;51.034;3.730;2023-08-17T07:42:01;21.60;94.60
36716;DHT22;22699;51.034;3.730;2023-08-17T07:44:27;21.60;94.50
36716;DHT22;22699;51.034;3.730;2023-08-17T07:46:54;21.50;94.90
36716;DHT22;22699;51.034;3.730;2023-08-17T07:49:20;21.20;95.20
36716;DHT22;22699;51.034;3.730;2023-08-17T07:51:48;21.10;95.40
36716;DHT22;22699;51.034;3.730;2023-08-17T07:54:14;21.00;95.60
36716;DHT22;22699;51.034;3.730;2023-08-17T07:56:39;20.90;95.60
36716;DHT22;22699;51.034;3.730;2023-08-17T07:59:05;20.80;95.90
36716;DHT22;22699;51.034;3.730;2023-08-17T08:01:31;21.00;95.60
36716;DHT22;22699;51.034;3.730;2023-08-17T08:03:56;21.20;95.60
36716;DHT22;22699;51.034;3.730;2023-08-17T08:06:22;21.70;95.20
36716;DHT22;22699;51.034;3.730;2023-08-17T08:08:48;22.00;94.30
36716;DHT22;22699;51.034;3.730;2023-08-17T08:11:14;22.00;94.00
36716;DHT22;22699;51.034;3.730;2023-08-17T08:13:39;21.90;94.10
36716;DHT22;22699;51.034;3.730;2023-08-17T08:16:06;21.80;94.20
36716;DHT22;22699;51.034;3.730;2023-08-17T08:18:31;22.00;94.10
36716;DHT22;22699;51.034;3.730;2023-08-17T08:20:57;22.00;94.10
36716;DHT22;22699;51.034;3.730;2023-08-17T08:23:22;22.00;94.00
36716;DHT22;22699;51.034;3.730;2023-08-17T08:25:48;22.20;93.70
36716;DHT22;22699;51.034;3.730;2023-08-17T08:28:14;22.40;93.60
36716;DHT22;22699;51.034;3.730;2023-08-17T08:30:39;22.60;93.40
36716;DHT22;22699;51.034;3.730;2023-08-17T08:33:05;23.10;92.80
36716;DHT22;22699;51.034;3.730;2023-08-17T08:35:31;24.00;92.00
36716;DHT22;22699;51.034;3.730;2023-08-17T08:37:58;24.70;90.70
36716;DHT22;22699;51.034;3.730;2023-08-17T08:40:28;25.20;89.30
36716;DHT22;22699;51.034;3.730;2023-08-17T08:42:55;25.90;86.90
36716;DHT22;22699;51.034;3.730;2023-08-17T08:45:22;26.00;85.50
36716;DHT22;22699;51.034;3.730;2023-08-17T08:47:49;26.10;84.70
36716;DHT22;22699;51.034;3.730;2023-08-17T08:50:20;26.00;84.40
36716;DHT22;22699;51.034;3.730;2023-08-17T08:53:13;25.50;84.80
36716;DHT22;22699;51.034;3.730;2023-08-17T08:55:46;25.20;86.80
36716;DHT22;22699;51.034;3.730;2023-08-17T08:58:17;25.70;86.10
36716;DHT22;22699;51.034;3.730;2023-08-17T09:00:45;28.00;83.00
36716;DHT22;22699;51.034;3.730;2023-08-17T09:03:12;29.20;76.20
36716;DHT22;22699;51.034;3.730;2023-08-17T09:05:38;30.10;74.90
36716;DHT22;22699;51.034;3.730;2023-08-17T09:08:08;30.80;71.90
36716;DHT22;22699;51.034;3.730;2023-08-17T09:10:34;31.20;70.80
36716;DHT22;22699;51.034;3.730;2023-08-17T09:12:59;32.30;67.20
36716;DHT22;22699;51.034;3.730;2023-08-17T09:15:25;32.10;66.80
36716;DHT22;22699;51.034;3.730;2023-08-17T09:17:50;32.90;65.20
36716;DHT22;22699;51.034;3.730;2023-08-17T09:20:55;33.80;63.90
36716;DHT22;22699;51.034;3.730;2023-08-17T09:23:21;36.90;59.60
36716;DHT22;22699;51.034;3.730;2023-08-17T09:25:48;39.40;55.50
36716;DHT22;22699;51.034;3.730;2023-08-17T09:28:16;41.40;52.20
36716;DHT22;22699;51.034;3.730;2023-08-17T09:33:26;44.10;47.50
36716;DHT22;22699;51.034;3.730;2023-08-17T09:35:53;43.50;46.90
36716;DHT22;22699;51.034;3.730;2023-08-17T09:38:19;40.40;48.80
36716;DHT22;22699;51.034;3.730;2023-08-17T09:40:46;39.00;50.40
36716;DHT22;22699;51.034;3.730;2023-08-17T09:43:12;40.00;49.80
36716;DHT22;22699;51.034;3.730;2023-08-17T09:45:38;38.50;50.50
36716;DHT22;22699;51.034;3.730;2023-08-17T09:48:08;36.50;52.60
36716;DHT22;22699;51.034;3.730;2023-08-17T09:50:35;35.10;55.20
36716;DHT22;22699;51.034;3.730;2023-08-17T09:53:02;35.80;55.20
36716;DHT22;22699;51.034;3.730;2023-08-17T09:55:30;36.00;54.20
36716;DHT22;22699;51.034;3.730;2023-08-17T09:57:58;34.90;55.60
36716;DHT22;22699;51.034;3.730;2023-08-17T10:00:25;34.70;56.60
36716;DHT22;22699;51.034;3.730;2023-08-17T10:02:51;35.40;55.70
36716;DHT22;22699;51.034;3.730;2023-08-17T10:05:19;35.10;55.50
36716;DHT22;22699;51.034;3.730;2023-08-17T10:07:51;34.40;56.50
36716;DHT22;22699;51.034;3.730;2023-08-17T10:10:26;33.90;57.10
36716;DHT22;22699;51.034;3.730;2023-08-17T10:15:25;32.80;59.40
36716;DHT22;22699;51.034;3.730;2023-08-17T10:18:09;32.50;60.20
36716;DHT22;22699;51.034;3.730;2023-08-17T10:20:40;32.00;60.80
36716;DHT22;22699;51.034;3.730;2023-08-17T10:23:15;31.00;63.10
36716;DHT22;22699;51.034;3.730;2023-08-17T10:25:42;30.70;63.80
36716;DHT22;22699;51.034;3.730;2023-08-17T10:28:12;30.40;64.30
36716;DHT22;22699;51.034;3.730;2023-08-17T10:30:38;30.50;64.40
36716;DHT22;22699;51.034;3.730;2023-08-17T10:33:07;30.70;64.40
36716;DHT22;22699;51.034;3.730;2023-08-17T10:35:34;30.70;64.40
36716;DHT22;22699;51.034;3.730;2023-08-17T10:38:02;30.20;64.90
36716;DHT22;22699;51.034;3.730;2023-08-17T10:40:34;29.70;66.00
36716;DHT22;22699;51.034;3.730;2023-08-17T10:42:59;29.10;67.50
36716;DHT22;22699;51.034;3.730;2023-08-17T10:45:30;29.00;68.20
36716;DHT22;22699;51.034;3.730;2023-08-17T10:48:25;29.20;67.70
36716;DHT22;22699;51.034;3.730;2023-08-17T10:51:04;28.80;68.20
36716;DHT22;22699;51.034;3.730;2023-08-17T10:53:37;28.40;69.30
36716;DHT22;22699;51.034;3.730;2023-08-17T10:56:10;28.30;69.80
36716;DHT22;22699;51.034;3.730;2023-08-17T10:58:36;27.90;70.70
36716;DHT22;22699;51.034;3.730;2023-08-17T11:01:02;27.60;71.50
36716;DHT22;22699;51.034;3.730;2023-08-17T11:03:27;27.50;72.00
36716;DHT22;22699;51.034;3.730;2023-08-17T11:05:55;27.60;72.40
36716;DHT22;22699;51.034;3.730;2023-08-17T11:08:54;27.60;72.20
36716;DHT22;22699;51.034;3.730;2023-08-17T11:11:21;27.90;71.70
36716;DHT22;22699;51.034;3.730;2023-08-17T11:13:49;27.70;72.20
36716;DHT22;22699;51.034;3.730;2023-08-17T11:16:16;27.60;72.30
36716;DHT22;22699;51.034;3.730;2023-08-17T11:18:46;27.70;72.40
36716;DHT22;22699;51.034;3.730;2023-08-17T11:21:12;28.00;72.20
36716;DHT22;22699;51.034;3.730;2023-08-17T11:23:37;28.20;72.00
36716;DHT22;22699;51.034;3.730;2023-08-17T11:26:04;28.50;71.50
36716;DHT22;22699;51.034;3.730;2023-08-17T11:28:30;28.50;70.90
36716;DHT22;22699;51.034;3.730;2023-08-17T11:31:05;28.50;70.90
36716;DHT22;22699;51.034;3.730;2023-08-17T11:33:32;28.80;70.80
36716;DHT22;22699;51.034;3.730;2023-08-17T11:35:58;28.60;71.20
36716;DHT22;22699;51.034;3.730;2023-08-17T11:38:25;28.70;70.80
36716;DHT22;22699;51.034;3.730;2023-08-17T11:40:51;28.10;72.30
36716;DHT22;22699;51.034;3.730;2023-08-17T11:43:18;28.10;72.50
36716;DHT22;22699;51.034;3.730;2023-08-17T11:45:44;27.80;72.90
36716;DHT22;22699;51.034;3.730;2023-08-17T11:48:10;27.10;74.20
36716;DHT22;22699;51.034;3.730;2023-08-17T11:50:35;26.90;75.00
36716;DHT22;22699;51.034;3.730;2023-08-17T11:53:01;26.80;75.50
36716;DHT22;22699;51.034;3.730;2023-08-17T11:55:27;26.90;75.40
36716;DHT22;22699;51.034;3.730;2023-08-17T11:57:53;27.10;74.80
36716;DHT22;22699;51.034;3.730;2023-08-17T12:00:21;26.90;74.90
36716;DHT22;22699;51.034;3.730;2023-08-17T12:02:48;26.20;76.70
36716;DHT22;22699;51.034;3.730;2023-08-17T12:05:13;25.80;78.10
36716;DHT22;22699;51.034;3.730;2023-08-17T12:07:45;25.50;79.40
36716;DHT22;22699;51.034;3.730;2023-08-17T12:10:11;25.90;78.40
36716;DHT22;22699;51.034;3.730;2023-08-17T12:12:37;26.10;77.60
36716;DHT22;22699;51.034;3.730;2023-08-17T12:15:04;25.90;78.10
36716;DHT22;22699;51.034;3.730;2023-08-17T12:17:30;25.80;78.90
36716;DHT22;22699;51.034;3.730;2023-08-17T12:19:55;25.90;79.10
36716;DHT22;22699;51.034;3.730;2023-08-17T12:22:24;26.10;78.50
36716;DHT22;22699;51.034;3.730;2023-08-17T12:24:51;26.10;78.20
36716;DHT22;22699;51.034;3.730;2023-08-17T12:27:17;26.10;78.60
36716;DHT22;22699;51.034;3.730;2023-08-17T12:29:50;26.10;78.60
36716;DHT22;22699;51.034;3.730;2023-08-17T12:32:20;26.00;78.90
36716;DHT22;22699;51.034;3.730;2023-08-17T12:34:46;26.10;78.60
36716;DHT22;22699;51.034;3.730;2023-08-17T12:37:17;26.30;78.40
36716;DHT22;22699;51.034;3.730;2023-08-17T12:39:43;26.50;78.10
36716;DHT22;22699;51.034;3.730;2023-08-17T12:42:09;26.40;78.50
36716;DHT22;22699;51.034;3.730;2023-08-17T12:44:34;26.50;77.90
36716;DHT22;22699;51.034;3.730;2023-08-17T12:47:00;26.50;77.70
36716;DHT22;22699;51.034;3.730;2023-08-17T12:49:26;26.50;77.80
36716;DHT22;22699;51.034;3.730;2023-08-17T12:51:51;26.40;77.70
36716;DHT22;22699;51.034;3.730;2023-08-17T12:54:17;26.10;78.90
36716;DHT22;22699;51.034;3.730;2023-08-17T12:56:44;25.80;79.50
36716;DHT22;22699;51.034;3.730;2023-08-17T12:59:10;25.80;80.00
36716;DHT22;22699;51.034;3.730;2023-08-17T13:01:35;25.60;80.80
36716;DHT22;22699;51.034;3.730;2023-08-17T13:04:01;25.50;80.70
36716;DHT22;22699;51.034;3.730;2023-08-17T13:06:26;25.50;80.80
36716;DHT22;22699;51.034;3.730;2023-08-17T13:08:52;25.30;81.20
36716;DHT22;22699;51.034;3.730;2023-08-17T13:11:18;25.30;81.70
36716;DHT22;22699;51.034;3.730;2023-08-17T13:13:43;25.20;82.30
36716;DHT22;22699;51.034;3.730;2023-08-17T13:16:09;24.80;83.50
36716;DHT22;22699;51.034;3.730;2023-08-17T13:18:36;24.90;83.60
36716;DHT22;22699;51.034;3.730;2023-08-17T13:21:02;25.00;83.30
36716;DHT22;22699;51.034;3.730;2023-08-17T13:23:28;25.10;83.30
36716;DHT22;22699;51.034;3.730;2023-08-17T13:25:54;24.90;83.90
36716;DHT22;22699;51.034;3.730;2023-08-17T13:28:20;25.00;83.40
36716;DHT22;22699;51.034;3.730;2023-08-17T13:30:45;25.30;82.90
36716;DHT22;22699;51.034;3.730;2023-08-17T13:33:12;25.40;82.60
36716;DHT22;22699;51.034;3.730;2023-08-17T13:35:38;25.70;81.80
36716;DHT22;22699;51.034;3.730;2023-08-17T13:38:04;25.60;82.00
36716;DHT22;22699;51.034;3.730;2023-08-17T13:40:31;25.70;81.90
36716;DHT22;22699;51.034;3.730;2023-08-17T13:42:56;25.80;81.80
36716;DHT22;22699;51.034;3.730;2023-08-17T13:45:24;25.90;81.60
36716;DHT22;22699;51.034;3.730;2023-08-17T13:47:49;26.00;81.20
36716;DHT22;22699;51.034;3.730;2023-08-17T13:50:15;26.30;80.70
36716;DHT22;22699;51.034;3.730;2023-08-17T13:52:41;26.40;80.00
36716;DHT22;22699;51.034;3.730;2023-08-17T13:55:07;26.40;80.00
36716;DHT22;22699;51.034;3.730;2023-08-17T13:57:33;26.40;80.20
36716;DHT22;22699;51.034;3.730;2023-08-17T13:59:59;26.80;79.70
36716;DHT22;22699;51.034;3.730;2023-08-17T14:02:24;26.90;79.10
36716;DHT22;22699;51.034;3.730;2023-08-17T14:04:50;27.00;78.90
36716;DHT22;22699;51.034;3.730;2023-08-17T14:07:15;26.90;78.50
36716;DHT22;22699;51.034;3.730;2023-08-17T14:09:41;26.90;78.60
36716;DHT22;22699;51.034;3.730;2023-08-17T14:12:06;26.70;78.90
36716;DHT22;22699;51.034;3.730;2023-08-17T14:14:32;26.70;79.60
36716;DHT22;22699;51.034;3.730;2023-08-17T14:16:59;26.60;79.30
36716;DHT22;22699;51.034;3.730;2023-08-17T14:19:25;26.50;79.80
36716;DHT22;22699;51.034;3.730;2023-08-17T14:21:50;26.70;79.60
36716;DHT22;22699;51.034;3.730;2023-08-17T14:24:17;26.70;79.60
36716;DHT22;22699;51.034;3.730;2023-08-17T14:26:43;26.40;80.10
36716;DHT22;22699;51.034;3.730;2023-08-17T14:29:08;26.10;80.90
36716;DHT22;22699;51.034;3.730;2023-08-17T14:31:34;26.00;81.30
36716;DHT22;22699;51.034;3.730;2023-08-17T14:34:00;26.10;81.40
36716;DHT22;22699;51.034;3.730;2023-08-17T14:36:25;26.10;81.50
36716;DHT22;22699;51.034;3.730;2023-08-17T14:38:51;26.00;81.60
36716;DHT22;22699;51.034;3.730;2023-08-17T14:41:17;25.90;81.90
36716;DHT22;22699;51.034;3.730;2023-08-17T14:43:42;25.80;82.30
36716;DHT22;22699;51.034;3.730;2023-08-17T14:46:08;25.60;82.80
36716;DHT22;22699;51.034;3.730;2023-08-17T14:48:34;25.50;83.20
36716;DHT22;22699;51.034;3.730;2023-08-17T14:50:59;25.50;83.30
36716;DHT22;22699;51.034;3.730;2023-08-17T14:53:25;25.50;83.30
36716;DHT22;22699;51.034;3.730;2023-08-17T14:55:51;25.20;84.00
36716;DHT22;22699;51.034;3.730;2023-08-17T14:58:16;25.00;85.00
36716;DHT22;22699;51.034;3.730;2023-08-17T15:00:44;25.00;85.50
36716;DHT22;22699;51.034;3.730;2023-08-17T15:03:10;25.00;85.30
36716;DHT22;22699;51.034;3.730;2023-08-17T15:05:35;25.00;85.40
36716;DHT22;22699;51.034;3.730;2023-08-17T15:08:03;25.10;85.10
36716;DHT22;22699;51.034;3.730;2023-08-17T15:10:29;25.30;84.80
36716;DHT22;22699;51.034;3.730;2023-08-17T15:12:55;25.20;84.50
36716;DHT22;22699;51.034;3.730;2023-08-17T15:15:20;25.20;84.90
36716;DHT22;22699;51.034;3.730;2023-08-17T15:17:46;25.20;84.90
36716;DHT22;22699;51.034;3.730;2023-08-17T15:20:12;25.30;84.70
36716;DHT22;22699;51.034;3.730;2023-08-17T15:22:37;25.60;83.90
36716;DHT22;22699;51.034;3.730;2023-08-17T15:25:03;25.50;83.70
36716;DHT22;22699;51.034;3.730;2023-08-17T15:27:29;25.40;84.40
36716;DHT22;22699;51.034;3.730;2023-08-17T15:29:55;25.50;84.30
36716;DHT22;22699;51.034;3.730;2023-08-17T15:32:20;25.60;83.80
36716;DHT22;22699;51.034;3.730;2023-08-17T15:34:46;25.60;83.50
36716;DHT22;22699;51.034;3.730;2023-08-17T15:37:12;25.80;83.00